Time;durP1;ratioP1;P1;durP2;ratioP2;P2;SDS_P1;SDS_P2;PMS_P1;PMS_P2;Temp;Humidity;BMP_temperature;BMP_pressure;BME280_temperature;BME280_humidity;BME280_pressure;Samples;Min_cycle;Max_cycle;Signal;HPM_P1;HPM_P2
2022/07/08 00:02:16;;;;;;;17.85;2.38;;;;;;;;;;5126706;27;20132;-83
2022/07/08 00:04:42;;;;;;;10.90;2.30;;;;;;;;;;5126108;27;20046;-83
2022/07/08 00:07:07;;;;;;;23.85;3.33;;;;;;;;;;5126322;27;20043;-83
2022/07/08 00:09:33;;;;;;;15.77;2.85;;;;;;;;;;5142933;27;20067;-83
2022/07/08 00:11:58;;;;;;;18.15;3.13;;;;;;;;;;5109071;28;20039;-82
2022/07/08 00:14:23;;;;;;;19.48;2.83;;;;;;;;;;5105669;28;20467;-82
2022/07/08 00:16:54;;;;;;;9.93;2.63;;;;;;;;;;5105724;28;20028;-83
2022/07/08 00:19:20;;;;;;;11.07;2.60;;;;;;;;;;5105763;28;20085;-83
2022/07/08 00:21:50;;;;;;;15.45;3.58;;;;;;;;;;5105529;28;20039;-83
2022/07/08 00:24:16;;;;;;;15.57;2.55;;;;;;;;;;5123480;28;20400;-83
2022/07/08 00:26:43;;;;;;;13.00;2.83;;;;;;;;;;5120929;28;20062;-83
2022/07/08 00:29:09;;;;;;;13.60;3.15;;;;;;;;;;5103216;28;20066;-83
2022/07/08 00:31:35;;;;;;;13.43;2.55;;;;;;;;;;5102298;28;20038;-83
2022/07/08 00:34:01;;;;;;;11.05;2.35;;;;;;;;;;5102501;28;20065;-82
2022/07/08 00:36:28;;;;;;;8.45;1.92;;;;;;;;;;5119472;28;20036;-82
2022/07/08 00:38:57;;;;;;;12.95;2.45;;;;;;;;;;5118031;28;20101;-82
2022/07/08 00:41:23;;;;;;;17.13;3.17;;;;;;;;;;5109781;28;20039;-82
2022/07/08 00:43:48;;;;;;;15.15;2.40;;;;;;;;;;5117968;28;20043;-82
2022/07/08 00:46:15;;;;;;;13.35;2.45;;;;;;;;;;5118035;28;20038;-82
2022/07/08 00:48:42;;;;;;;17.52;3.67;;;;;;;;;;5100600;28;20028;-83
2022/07/08 00:51:12;;;;;;;14.40;2.28;;;;;;;;;;5101398;28;20108;-82
2022/07/08 00:53:42;;;;;;;8.52;2.50;;;;;;;;;;5100879;28;20043;-83
2022/07/08 00:56:12;;;;;;;14.52;2.53;;;;;;;;;;5101155;28;20059;-83
2022/07/08 00:58:40;;;;;;;12.98;2.15;;;;;;;;;;5118561;28;20400;-83
2022/07/08 01:01:06;;;;;;;13.43;2.30;;;;;;;;;;5118631;28;20043;-83
2022/07/08 01:03:31;;;;;;;17.85;2.90;;;;;;;;;;5102195;28;20074;-83
2022/07/08 01:06:00;;;;;;;9.45;2.47;;;;;;;;;;5119645;28;20071;-83
2022/07/08 01:08:26;;;;;;;18.30;2.95;;;;;;;;;;5130492;27;20034;-83
2022/07/08 01:10:52;;;;;;;16.20;3.42;;;;;;;;;;5122980;28;20041;-82
2022/07/08 01:13:18;;;;;;;13.10;3.13;;;;;;;;;;5123025;28;20038;-83
2022/07/08 01:15:48;;;;;;;18.08;2.63;;;;;;;;;;5140494;27;20031;-83
2022/07/08 01:18:40;;;;;;;21.38;2.58;;;;;;;;;;5122614;28;20070;-83
2022/07/08 01:21:06;;;;;;;11.60;2.78;;;;;;;;;;5135987;28;20457;-82
2022/07/08 01:23:34;;;;;;;13.25;3.10;;;;;;;;;;5122120;28;20031;-83
2022/07/08 01:26:09;;;;;;;12.73;2.67;;;;;;;;;;5123854;28;20065;-83
2022/07/08 01:28:34;;;;;;;14.73;2.58;;;;;;;;;;5123186;28;20042;-83
2022/07/08 01:31:02;;;;;;;10.60;2.35;;;;;;;;;;5123016;28;20035;-83
2022/07/08 01:33:27;;;;;;;12.18;2.50;;;;;;;;;;5142582;28;20091;-83
2022/07/08 01:35:55;;;;;;;8.70;2.28;;;;;;;;;;5126410;28;20506;-83
2022/07/08 01:38:21;;;;;;;14.25;2.58;;;;;;;;;;5087752;27;1048959;-83
2022/07/08 01:40:46;;;;;;;13.32;2.50;;;;;;;;;;5126230;27;20035;-83
2022/07/08 01:43:12;;;;;;;11.15;2.28;;;;;;;;;;5144588;27;20080;-83
2022/07/08 01:45:41;;;;;;;11.32;2.50;;;;;;;;;;5123913;27;20062;-82
2022/07/08 01:48:08;;;;;;;20.58;2.90;;;;;;;;;;5141298;27;20035;-82
2022/07/08 01:50:34;;;;;;;13.52;3.13;;;;;;;;;;5123598;27;20027;-82
2022/07/08 01:52:59;;;;;;;14.40;2.72;;;;;;;;;;5124177;27;20076;-83
2022/07/08 01:55:25;;;;;;;23.67;2.83;;;;;;;;;;5124322;27;20031;-83
2022/07/08 01:57:51;;;;;;;12.75;2.40;;;;;;;;;;5123716;27;20046;-83
2022/07/08 02:00:17;;;;;;;16.63;2.88;;;;;;;;;;5123749;27;20027;-83
2022/07/08 02:02:42;;;;;;;16.80;2.97;;;;;;;;;;5122735;27;20413;-83
2022/07/08 02:05:13;;;;;;;23.63;3.20;;;;;;;;;;5122768;27;20035;-83
2022/07/08 02:07:40;;;;;;;15.57;3.42;;;;;;;;;;5140004;27;20043;-83
2022/07/08 02:10:07;;;;;;;15.23;2.97;;;;;;;;;;5123704;27;20039;-84
2022/07/08 02:12:33;;;;;;;14.95;2.47;;;;;;;;;;5122697;27;20038;-83
2022/07/08 02:15:03;;;;;;;15.30;2.70;;;;;;;;;;5122762;27;20062;-82
2022/07/08 02:17:40;;;;;;;13.95;3.20;;;;;;;;;;5139286;27;20087;-82
2022/07/08 02:20:11;;;;;;;20.48;3.85;;;;;;;;;;5122592;27;20485;-83
2022/07/08 02:22:38;;;;;;;19.65;2.78;;;;;;;;;;5122480;27;20031;-83
2022/07/08 02:25:04;;;;;;;13.73;2.58;;;;;;;;;;5139267;27;20084;-83
2022/07/08 02:27:31;;;;;;;13.43;2.70;;;;;;;;;;5122836;27;20031;-83
2022/07/08 02:29:58;;;;;;;15.55;3.00;;;;;;;;;;5122748;27;20080;-83
2022/07/08 02:32:24;;;;;;;10.48;2.30;;;;;;;;;;5124441;27;20108;-83
2022/07/08 02:34:50;;;;;;;10.55;2.67;;;;;;;;;;5110822;28;20061;-85
2022/07/08 02:37:15;;;;;;;15.23;2.80;;;;;;;;;;5122560;28;20093;-84
2022/07/08 02:39:43;;;;;;;17.45;2.67;;;;;;;;;;5122760;28;20054;-85
2022/07/08 02:42:09;;;;;;;16.38;2.28;;;;;;;;;;5107110;28;20484;-84
2022/07/08 02:44:36;;;;;;;15.25;3.00;;;;;;;;;;5104733;28;20063;-85
2022/07/08 02:47:04;;;;;;;17.77;2.60;;;;;;;;;;5101137;28;20043;-84
2022/07/08 02:49:29;;;;;;;19.60;3.17;;;;;;;;;;5119514;28;20031;-82
2022/07/08 02:51:55;;;;;;;15.23;2.40;;;;;;;;;;5102421;28;20038;-81
2022/07/08 02:54:22;;;;;;;15.57;3.13;;;;;;;;;;5101305;28;20122;-81
2022/07/08 02:56:47;;;;;;;11.98;2.45;;;;;;;;;;5100816;28;20074;-81
2022/07/08 02:59:15;;;;;;;11.70;2.25;;;;;;;;;;5101218;28;20040;-80
2022/07/08 03:01:41;;;;;;;14.90;2.65;;;;;;;;;;5101063;28;20091;-79
2022/07/08 03:04:06;;;;;;;14.75;3.08;;;;;;;;;;5126873;27;20070;-80
2022/07/08 03:06:31;;;;;;;17.40;3.13;;;;;;;;;;5138325;27;20035;-79
2022/07/08 03:08:57;;;;;;;24.67;3.40;;;;;;;;;;5120582;27;20023;-79
2022/07/08 03:11:22;;;;;;;13.55;2.60;;;;;;;;;;5154811;27;20042;-79
2022/07/08 03:13:48;;;;;;;13.70;2.97;;;;;;;;;;5158547;27;20033;-79
2022/07/08 03:16:13;;;;;;;18.95;2.75;;;;;;;;;;5140680;27;20499;-79
2022/07/08 03:18:40;;;;;;;12.00;2.42;;;;;;;;;;5158724;27;20034;-80
2022/07/08 03:21:07;;;;;;;14.00;2.70;;;;;;;;;;5141210;27;20094;-80
2022/07/08 03:23:33;;;;;;;12.48;2.22;;;;;;;;;;5158435;27;20082;-80
2022/07/08 03:25:59;;;;;;;8.93;2.15;;;;;;;;;;5141790;27;20411;-80
2022/07/08 03:28:25;;;;;;;11.38;3.47;;;;;;;;;;5160448;27;20118;-81
2022/07/08 03:30:51;;;;;;;10.52;2.03;;;;;;;;;;5142021;27;20547;-80
2022/07/08 03:33:16;;;;;;;15.70;3.30;;;;;;;;;;5160090;27;20035;-81
2022/07/08 03:35:41;;;;;;;13.90;2.45;;;;;;;;;;5159029;27;20086;-80
2022/07/08 03:38:07;;;;;;;14.85;2.13;;;;;;;;;;5158474;27;20039;-80
2022/07/08 03:43:16;;;;;;;10.63;2.38;;;;;;;;;;5137775;28;20377;-80
2022/07/08 03:45:43;;;;;;;7.47;2.25;;;;;;;;;;5138159;28;20084;-80
2022/07/08 03:48:09;;;;;;;9.35;1.95;;;;;;;;;;5120670;28;20031;-80
2022/07/08 03:50:34;;;;;;;16.20;2.67;;;;;;;;;;5121500;28;20038;-80
2022/07/08 03:53:02;;;;;;;17.55;3.10;;;;;;;;;;5138321;28;20042;-80
2022/07/08 03:55:29;;;;;;;13.55;2.15;;;;;;;;;;5138141;28;20039;-80
2022/07/08 03:57:54;;;;;;;13.85;2.72;;;;;;;;;;5120914;28;20072;-80
2022/07/08 04:00:20;;;;;;;15.68;2.53;;;;;;;;;;5137739;28;20088;-80
2022/07/08 04:02:46;;;;;;;13.20;2.63;;;;;;;;;;5138139;28;20480;-79
2022/07/08 04:05:12;;;;;;;10.38;2.13;;;;;;;;;;5137560;28;20077;-80
2022/07/08 04:07:38;;;;;;;16.63;2.17;;;;;;;;;;5137342;28;20035;-79
2022/07/08 04:10:04;;;;;;;9.70;2.20;;;;;;;;;;5123341;28;20039;-80
2022/07/08 04:12:33;;;;;;;10.90;2.35;;;;;;;;;;5116886;28;20103;-80
2022/07/08 04:14:59;;;;;;;11.82;2.83;;;;;;;;;;5099981;28;20035;-80
2022/07/08 04:17:25;;;;;;;9.50;2.15;;;;;;;;;;5099861;28;20039;-80
2022/07/08 04:19:50;;;;;;;13.27;2.65;;;;;;;;;;5099866;28;20032;-80
2022/07/08 04:22:16;;;;;;;10.02;2.10;;;;;;;;;;5099298;28;20103;-80
2022/07/08 04:24:41;;;;;;;10.65;2.33;;;;;;;;;;5116721;28;20036;-79
2022/07/08 04:27:06;;;;;;;9.63;2.35;;;;;;;;;;5098986;28;20092;-80
2022/07/08 04:29:32;;;;;;;10.75;3.65;;;;;;;;;;5097318;28;20031;-80
2022/07/08 04:31:57;;;;;;;11.05;2.70;;;;;;;;;;5100972;28;20303;-80
2022/07/08 04:34:23;;;;;;;11.07;2.42;;;;;;;;;;5118270;28;20043;-80
2022/07/08 04:36:48;;;;;;;13.70;2.35;;;;;;;;;;5149050;27;20049;-80
2022/07/08 04:39:13;;;;;;;17.25;2.75;;;;;;;;;;5141954;27;20061;-80
2022/07/08 04:41:39;;;;;;;12.88;3.03;;;;;;;;;;5160119;27;20038;-81
2022/07/08 04:44:06;;;;;;;12.55;2.70;;;;;;;;;;5160452;27;20122;-81
2022/07/08 04:46:32;;;;;;;8.05;2.10;;;;;;;;;;5159965;27;20042;-81
2022/07/08 04:48:57;;;;;;;16.15;3.13;;;;;;;;;;5160443;27;20030;-80
2022/07/08 04:51:25;;;;;;;14.05;2.90;;;;;;;;;;5142749;27;20038;-81
2022/07/08 04:53:51;;;;;;;14.98;3.28;;;;;;;;;;5143084;27;20122;-80
2022/07/08 04:56:16;;;;;;;14.80;2.45;;;;;;;;;;5141810;27;20437;-80
2022/07/08 04:58:42;;;;;;;17.48;2.30;;;;;;;;;;5160002;27;20086;-79
2022/07/08 05:01:09;;;;;;;9.50;2.13;;;;;;;;;;5161117;27;20121;-80
2022/07/08 05:03:34;;;;;;;11.43;2.28;;;;;;;;;;5143742;27;20034;-80
2022/07/08 05:06:00;;;;;;;10.63;2.45;;;;;;;;;;5143382;27;20532;-80
2022/07/08 05:08:25;;;;;;;9.48;1.67;;;;;;;;;;5143692;27;20035;-80
2022/07/08 05:10:52;;;;;;;12.68;4.32;;;;;;;;;;5160537;27;20065;-80
2022/07/08 05:13:19;;;;;;;15.48;2.25;;;;;;;;;;5143128;27;20091;-80
2022/07/08 05:15:46;;;;;;;10.95;2.33;;;;;;;;;;5142805;27;20065;-80
2022/07/08 05:18:14;;;;;;;12.07;2.47;;;;;;;;;;5161655;27;20031;-79
2022/07/08 05:20:39;;;;;;;9.18;2.50;;;;;;;;;;5143259;27;20106;-80
2022/07/08 05:23:05;;;;;;;10.07;2.28;;;;;;;;;;5143124;27;20026;-80
2022/07/08 05:25:33;;;;;;;15.43;2.63;;;;;;;;;;5142403;27;20038;-81
2022/07/08 05:27:59;;;;;;;4.82;1.65;;;;;;;;;;5159784;27;20043;-80
2022/07/08 05:30:27;;;;;;;10.18;2.35;;;;;;;;;;5161700;27;20384;-80
2022/07/08 05:32:52;;;;;;;20.23;2.55;;;;;;;;;;5142805;27;20117;-79
2022/07/08 05:35:18;;;;;;;9.10;2.33;;;;;;;;;;5159924;27;20050;-81
2022/07/08 05:37:44;;;;;;;13.18;2.13;;;;;;;;;;5137551;27;20034;-80
2022/07/08 05:40:12;;;;;;;13.20;2.88;;;;;;;;;;5122268;27;20027;-80
2022/07/08 05:42:39;;;;;;;13.38;2.38;;;;;;;;;;5138135;27;20399;-80
2022/07/08 05:45:07;;;;;;;6.65;2.30;;;;;;;;;;5138380;27;20073;-80
2022/07/08 05:47:35;;;;;;;11.00;2.20;;;;;;;;;;5122589;27;20042;-81
2022/07/08 05:50:01;;;;;;;6.75;1.83;;;;;;;;;;5123976;27;20035;-82
2022/07/08 05:52:26;;;;;;;8.73;2.20;;;;;;;;;;5123874;27;20027;-81
2022/07/08 05:54:54;;;;;;;13.32;2.67;;;;;;;;;;5142689;27;20130;-81
2022/07/08 05:57:20;;;;;;;12.88;2.22;;;;;;;;;;5124925;27;20023;-81
2022/07/08 05:59:47;;;;;;;12.77;3.47;;;;;;;;;;5142135;27;20060;-80
2022/07/08 06:02:13;;;;;;;7.68;2.10;;;;;;;;;;5124324;27;20515;-82
2022/07/08 06:04:39;;;;;;;13.23;2.25;;;;;;;;;;5124755;27;20182;-82
2022/07/08 06:07:05;;;;;;;10.77;2.08;;;;;;;;;;5125714;27;20035;-83
2022/07/08 06:09:30;;;;;;;13.32;1.90;;;;;;;;;;5144846;27;20023;-82
2022/07/08 06:11:56;;;;;;;17.42;3.20;;;;;;;;;;5144368;27;20034;-79
2022/07/08 06:14:22;;;;;;;8.05;2.03;;;;;;;;;;5105415;27;20036;-81
2022/07/08 06:16:50;;;;;;;10.30;1.98;;;;;;;;;;5103967;28;20039;-83
2022/07/08 06:19:17;;;;;;;14.32;2.60;;;;;;;;;;5103639;28;20085;-83
2022/07/08 06:21:43;;;;;;;11.23;2.38;;;;;;;;;;5104693;28;20027;-82
2022/07/08 06:24:10;;;;;;;8.82;2.10;;;;;;;;;;5102879;28;20042;-82
2022/07/08 06:26:37;;;;;;;15.70;2.97;;;;;;;;;;5120823;28;20039;-82
2022/07/08 06:29:03;;;;;;;9.13;2.72;;;;;;;;;;5121148;28;20040;-83
2022/07/08 06:31:30;;;;;;;11.30;2.50;;;;;;;;;;5120209;28;20031;-82
2022/07/08 06:33:58;;;;;;;8.52;2.35;;;;;;;;;;5119986;28;20032;-82
2022/07/08 06:36:24;;;;;;;10.88;2.40;;;;;;;;;;5109994;27;20061;-80
2022/07/08 06:38:50;;;;;;;12.52;3.03;;;;;;;;;;5119187;27;20039;-79
2022/07/08 06:41:17;;;;;;;11.70;2.88;;;;;;;;;;5118376;27;20039;-80
2022/07/08 06:43:46;;;;;;;13.05;2.50;;;;;;;;;;5119325;27;20039;-79
2022/07/08 06:46:14;;;;;;;11.10;2.10;;;;;;;;;;5136919;27;20065;-80
2022/07/08 06:48:40;;;;;;;9.57;1.92;;;;;;;;;;5120550;27;20039;-83
2022/07/08 06:51:06;;;;;;;12.60;2.63;;;;;;;;;;5137945;27;20408;-84
2022/07/08 06:54:34;;;;;;;10.32;2.15;;;;;;;;;;5121755;27;20035;-77
2022/07/08 06:56:18;;;;;;;12.98;2.55;;;;;;;;;;5140087;27;20055;-85
2022/07/08 06:58:44;;;;;;;13.80;2.50;;;;;;;;;;5126666;27;20035;-85
2022/07/08 07:01:10;;;;;;;11.40;2.28;;;;;;;;;;5120727;27;20035;-84
2022/07/08 07:03:36;;;;;;;10.82;2.40;;;;;;;;;;5118849;27;20058;-84
2022/07/08 07:06:03;;;;;;;7.68;2.53;;;;;;;;;;5121062;27;20485;-83
2022/07/08 07:08:28;;;;;;;13.52;2.80;;;;;;;;;;5131353;27;20030;-85
2022/07/08 07:10:58;;;;;;;11.70;2.53;;;;;;;;;;5128283;27;20027;-84
2022/07/08 07:13:25;;;;;;;9.40;1.92;;;;;;;;;;5101230;28;20069;-85
2022/07/08 07:15:51;;;;;;;10.80;2.00;;;;;;;;;;5099247;28;20552;-85
2022/07/08 07:18:16;;;;;;;14.65;3.00;;;;;;;;;;5099226;28;20051;-85
2022/07/08 07:20:42;;;;;;;9.35;2.35;;;;;;;;;;5102311;28;20035;-84
2022/07/08 07:23:07;;;;;;;7.03;1.75;;;;;;;;;;5100930;28;20032;-82
2022/07/08 07:25:34;;;;;;;13.07;2.35;;;;;;;;;;5101094;28;20042;-82
2022/07/08 07:28:00;;;;;;;10.38;2.10;;;;;;;;;;5118651;28;20116;-84
2022/07/08 07:30:26;;;;;;;7.18;1.80;;;;;;;;;;5102683;28;20043;-82
2022/07/08 07:32:52;;;;;;;11.73;1.60;;;;;;;;;;5103475;28;20039;-81
2022/07/08 07:35:20;;;;;;;6.55;1.50;;;;;;;;;;5118096;28;20027;-82
2022/07/08 07:37:46;;;;;;;8.55;2.65;;;;;;;;;;5118272;28;20032;-81
2022/07/08 07:40:12;;;;;;;11.30;1.88;;;;;;;;;;5117455;28;20093;-81
2022/07/08 07:42:37;;;;;;;8.27;1.92;;;;;;;;;;5119727;28;20039;-80
2022/07/08 07:45:04;;;;;;;10.13;2.22;;;;;;;;;;5137531;28;20035;-81
2022/07/08 07:47:30;;;;;;;12.70;2.22;;;;;;;;;;5122913;28;20059;-84
2022/07/08 07:49:56;;;;;;;6.32;2.08;;;;;;;;;;5113871;28;20499;-84
2022/07/08 07:52:22;;;;;;;10.25;2.40;;;;;;;;;;5115220;28;20054;-84
2022/07/08 07:54:47;;;;;;;6.75;2.13;;;;;;;;;;5124068;28;20065;-84
2022/07/08 07:57:14;;;;;;;6.57;1.80;;;;;;;;;;5142030;28;20035;-83
2022/07/08 07:59:40;;;;;;;11.82;2.00;;;;;;;;;;5143888;27;20045;-82
2022/07/08 08:02:08;;;;;;;12.88;2.13;;;;;;;;;;5122595;28;20389;-82
2022/07/08 08:04:33;;;;;;;6.63;2.08;;;;;;;;;;5124846;28;20061;-81
2022/07/08 08:07:01;;;;;;;6.78;2.00;;;;;;;;;;5145424;27;20035;-80
2022/07/08 08:09:28;;;;;;;8.75;2.15;;;;;;;;;;5140634;27;20031;-81
2022/07/08 08:11:53;;;;;;;7.30;1.92;;;;;;;;;;5150260;27;20027;-81
2022/07/08 08:14:19;;;;;;;7.40;1.98;;;;;;;;;;5148956;27;20038;-81
2022/07/08 08:16:45;;;;;;;7.75;1.52;;;;;;;;;;5167824;27;20033;-81
2022/07/08 08:19:10;;;;;;;7.95;1.58;;;;;;;;;;5168229;27;20106;-81
2022/07/08 08:21:36;;;;;;;8.32;1.85;;;;;;;;;;5151739;27;20034;-81
2022/07/08 08:24:03;;;;;;;6.60;1.52;;;;;;;;;;5147647;27;20040;-80
2022/07/08 08:26:28;;;;;;;9.30;1.95;;;;;;;;;;5147699;27;20027;-81
2022/07/08 08:28:54;;;;;;;6.35;1.92;;;;;;;;;;5147230;27;20477;-81
2022/07/08 08:31:19;;;;;;;7.97;2.10;;;;;;;;;;5165174;27;20041;-80
2022/07/08 08:33:48;;;;;;;5.35;1.52;;;;;;;;;;5164301;27;20038;-81
2022/07/08 08:36:14;;;;;;;10.60;3.25;;;;;;;;;;5142029;27;20027;-81
2022/07/08 08:38:39;;;;;;;7.88;1.80;;;;;;;;;;5117593;27;20056;-81
2022/07/08 08:41:05;;;;;;;5.10;1.75;;;;;;;;;;5102493;28;20036;-81
2022/07/08 08:43:31;;;;;;;5.38;1.65;;;;;;;;;;5120192;28;20036;-81
2022/07/08 08:45:59;;;;;;;9.70;1.60;;;;;;;;;;5120028;28;20032;-81
2022/07/08 08:48:25;;;;;;;7.07;2.20;;;;;;;;;;5102659;28;20035;-81
2022/07/08 08:51:02;;;;;;;9.38;1.95;;;;;;;;;;5120429;28;20060;-81
2022/07/08 08:53:42;;;;;;;7.88;2.17;;;;;;;;;;5108429;28;20031;-81
2022/07/08 08:56:12;;;;;;;11.48;2.33;;;;;;;;;;5125154;28;20058;-81
2022/07/08 08:58:46;;;;;;;9.25;2.33;;;;;;;;;;5122813;28;20055;-80
2022/07/08 09:01:14;;;;;;;5.25;1.27;;;;;;;;;;5102631;28;20056;-81
2022/07/08 09:03:39;;;;;;;7.72;1.85;;;;;;;;;;5119753;28;20112;-81
2022/07/08 09:06:06;;;;;;;6.47;1.67;;;;;;;;;;5103845;28;20047;-81
2022/07/08 09:08:32;;;;;;;9.95;2.10;;;;;;;;;;5122066;27;20032;-82
2022/07/08 09:10:58;;;;;;;9.20;1.70;;;;;;;;;;5120217;28;20031;-82
2022/07/08 09:13:25;;;;;;;10.75;1.90;;;;;;;;;;5121203;28;20043;-82
2022/07/08 09:15:57;;;;;;;7.78;1.90;;;;;;;;;;5103066;28;20377;-82
2022/07/08 09:18:38;;;;;;;7.07;1.52;;;;;;;;;;5102868;28;20042;-81
2022/07/08 09:21:06;;;;;;;8.38;2.03;;;;;;;;;;5120230;28;20039;-81
2022/07/08 09:23:37;;;;;;;9.18;1.95;;;;;;;;;;5101974;28;20059;-82
2022/07/08 09:26:05;;;;;;;7.07;2.03;;;;;;;;;;5102782;28;20027;-82
2022/07/08 09:28:38;;;;;;;9.00;1.60;;;;;;;;;;5119306;28;20404;-82
2022/07/08 09:31:08;;;;;;;5.38;1.60;;;;;;;;;;5121164;28;20031;-81
2022/07/08 09:33:36;;;;;;;9.38;2.30;;;;;;;;;;5119618;28;20035;-82
2022/07/08 09:36:02;;;;;;;7.07;1.42;;;;;;;;;;5118273;27;20035;-81
2022/07/08 09:38:36;;;;;;;7.65;2.00;;;;;;;;;;5122387;27;20047;-81
2022/07/08 09:41:04;;;;;;;7.78;1.77;;;;;;;;;;5122712;27;20035;-81
2022/07/08 09:43:33;;;;;;;7.20;1.27;;;;;;;;;;5138758;27;20527;-81
2022/07/08 09:46:06;;;;;;;7.43;1.70;;;;;;;;;;5120261;27;20035;-85
2022/07/08 09:48:31;;;;;;;6.40;1.80;;;;;;;;;;5138893;27;20072;-81
2022/07/08 09:50:59;;;;;;;6.47;1.35;;;;;;;;;;5122268;27;20023;-82
2022/07/08 09:53:26;;;;;;;4.93;1.50;;;;;;;;;;5121859;27;20100;-83
2022/07/08 09:55:54;;;;;;;9.30;1.73;;;;;;;;;;5138523;27;20039;-81
2022/07/08 09:58:25;;;;;;;5.93;1.50;;;;;;;;;;5122260;27;20125;-85
2022/07/08 10:00:54;;;;;;;6.28;2.00;;;;;;;;;;5123294;27;20042;-82
2022/07/08 10:03:22;;;;;;;6.90;1.83;;;;;;;;;;5121841;27;20492;-81
2022/07/08 10:05:49;;;;;;;5.22;1.48;;;;;;;;;;5108718;28;20058;-82
2022/07/08 10:08:15;;;;;;;6.38;1.50;;;;;;;;;;5119079;28;20421;-81
2022/07/08 10:10:43;;;;;;;9.80;2.17;;;;;;;;;;5121992;28;20174;-84
2022/07/08 10:13:09;;;;;;;7.15;2.00;;;;;;;;;;5107794;28;20118;-83
2022/07/08 10:15:37;;;;;;;9.38;2.10;;;;;;;;;;5112366;28;20068;-82
2022/07/08 10:18:25;;;;;;;8.02;1.73;;;;;;;;;;5114048;28;20063;-82
2022/07/08 10:20:54;;;;;;;6.82;1.92;;;;;;;;;;5110475;28;20035;-82
2022/07/08 10:23:45;;;;;;;7.80;1.90;;;;;;;;;;5110125;28;20087;-81
2022/07/08 10:26:11;;;;;;;8.82;2.10;;;;;;;;;;5118239;28;20035;-82
2022/07/08 10:28:40;;;;;;;7.05;1.60;;;;;;;;;;5119246;28;20028;-81
2022/07/08 10:31:21;;;;;;;5.80;1.45;;;;;;;;;;5101742;28;20031;-81
2022/07/08 10:33:47;;;;;;;7.90;1.77;;;;;;;;;;5102001;28;20038;-80
2022/07/08 10:36:12;;;;;;;6.38;1.55;;;;;;;;;;5107146;27;20043;-77
2022/07/08 10:38:43;;;;;;;6.63;1.70;;;;;;;;;;5134253;27;20052;-77
2022/07/08 10:41:11;;;;;;;10.40;2.17;;;;;;;;;;5118666;27;20035;-80
2022/07/08 10:43:48;;;;;;;8.80;2.10;;;;;;;;;;5120963;27;20039;-80
2022/07/08 10:46:16;;;;;;;8.75;1.92;;;;;;;;;;5120642;27;20038;-80
2022/07/08 10:48:43;;;;;;;8.30;1.80;;;;;;;;;;5138219;27;20038;-80
2022/07/08 10:51:18;;;;;;;4.30;1.48;;;;;;;;;;5138595;27;20035;-81
2022/07/08 10:53:57;;;;;;;7.47;1.58;;;;;;;;;;5120385;27;20038;-80
2022/07/08 10:56:48;;;;;;;6.20;1.75;;;;;;;;;;5137811;27;20405;-79
2022/07/08 10:59:18;;;;;;;3.22;1.23;;;;;;;;;;5137036;27;20087;-78
2022/07/08 11:01:51;;;;;;;6.57;2.00;;;;;;;;;;5135671;27;20121;-78
2022/07/08 11:04:31;;;;;;;9.30;1.63;;;;;;;;;;5134644;27;20038;-78
2022/07/08 11:07:37;;;;;;;8.20;1.63;;;;;;;;;;5136589;27;20042;-78
2022/07/08 11:10:07;;;;;;;7.40;1.40;;;;;;;;;;5134874;27;20180;-78
2022/07/08 11:12:44;;;;;;;7.47;1.90;;;;;;;;;;5135301;27;20039;-78
2022/07/08 11:15:12;;;;;;;7.40;1.95;;;;;;;;;;5135057;27;20035;-78
2022/07/08 11:17:41;;;;;;;5.85;1.73;;;;;;;;;;5136389;27;20116;-79
2022/07/08 11:20:08;;;;;;;6.85;1.63;;;;;;;;;;5135188;27;20039;-79
2022/07/08 11:22:37;;;;;;;8.63;1.75;;;;;;;;;;5118466;27;20049;-78
2022/07/08 11:25:04;;;;;;;5.63;1.40;;;;;;;;;;5118351;27;20133;-78
2022/07/08 11:27:31;;;;;;;5.78;1.80;;;;;;;;;;5136892;27;20382;-78
2022/07/08 11:29:57;;;;;;;7.63;2.03;;;;;;;;;;5135270;27;20027;-78
2022/07/08 11:32:26;;;;;;;4.07;1.30;;;;;;;;;;5117846;28;20024;-78
2022/07/08 11:34:53;;;;;;;5.20;1.13;;;;;;;;;;5128759;28;20115;-78
2022/07/08 11:37:19;;;;;;;5.13;1.52;;;;;;;;;;5115792;28;20031;-78
2022/07/08 11:39:46;;;;;;;6.50;1.58;;;;;;;;;;5099327;28;20095;-78
2022/07/08 11:42:12;;;;;;;7.35;1.55;;;;;;;;;;5129140;27;20031;-78
2022/07/08 11:44:38;;;;;;;9.88;1.88;;;;;;;;;;5121925;27;20027;-79
2022/07/08 11:47:04;;;;;;;3.63;1.30;;;;;;;;;;5121520;27;20496;-78
2022/07/08 11:49:31;;;;;;;6.88;1.40;;;;;;;;;;5139108;27;20039;-78
2022/07/08 11:51:58;;;;;;;5.97;1.65;;;;;;;;;;5139218;27;20041;-77
2022/07/08 11:54:26;;;;;;;5.82;1.40;;;;;;;;;;5139106;27;20046;-78
2022/07/08 11:56:56;;;;;;;5.70;1.52;;;;;;;;;;5121784;27;20039;-78
2022/07/08 11:59:22;;;;;;;4.93;1.17;;;;;;;;;;5138926;27;20027;-78
2022/07/08 12:01:52;;;;;;;5.38;1.25;;;;;;;;;;5121797;27;20122;-78
2022/07/08 12:04:18;;;;;;;5.32;1.52;;;;;;;;;;5122889;27;20126;-78
2022/07/08 12:06:52;;;;;;;7.90;1.60;;;;;;;;;;5160299;27;20046;-78
2022/07/08 12:09:19;;;;;;;7.00;1.80;;;;;;;;;;5159358;27;20087;-78
2022/07/08 12:11:46;;;;;;;7.07;1.80;;;;;;;;;;5159699;27;20026;-78
2022/07/08 12:14:13;;;;;;;5.32;2.05;;;;;;;;;;5159837;27;20563;-78
2022/07/08 12:16:46;;;;;;;6.20;1.80;;;;;;;;;;5159510;27;20046;-78
2022/07/08 12:19:24;;;;;;;8.35;1.85;;;;;;;;;;5142463;27;20062;-80
2022/07/08 12:21:50;;;;;;;5.90;1.77;;;;;;;;;;5162130;27;20045;-79
2022/07/08 12:24:23;;;;;;;7.18;1.88;;;;;;;;;;5161947;27;20035;-78
2022/07/08 12:26:55;;;;;;;6.35;1.52;;;;;;;;;;5161469;27;20551;-81
2022/07/08 12:29:21;;;;;;;7.38;1.70;;;;;;;;;;5159802;27;20167;-78
2022/07/08 12:31:47;;;;;;;8.88;1.52;;;;;;;;;;5156047;27;20059;-78
2022/07/08 12:34:18;;;;;;;6.85;1.77;;;;;;;;;;5157713;27;20038;-78
2022/07/08 12:36:43;;;;;;;9.10;1.67;;;;;;;;;;5136718;27;20156;-78
2022/07/08 12:39:12;;;;;;;8.13;1.10;;;;;;;;;;5136253;27;20224;-77
2022/07/08 12:41:38;;;;;;;4.32;1.38;;;;;;;;;;5137402;27;20035;-78
2022/07/08 12:44:36;;;;;;;5.07;1.65;;;;;;;;;;5137765;27;20039;-76
2022/07/08 12:47:04;;;;;;;8.15;1.52;;;;;;;;;;5136096;27;20138;-76
2022/07/08 12:49:32;;;;;;;8.82;1.75;;;;;;;;;;5135831;27;20039;-76
2022/07/08 12:51:59;;;;;;;5.22;2.00;;;;;;;;;;5132479;27;20023;-76
2022/07/08 12:54:25;;;;;;;7.35;1.50;;;;;;;;;;5123187;27;20054;-76
2022/07/08 12:56:52;;;;;;;5.57;1.55;;;;;;;;;;5126369;27;20035;-76
2022/07/08 12:59:18;;;;;;;5.22;1.50;;;;;;;;;;5135738;27;20451;-76
2022/07/08 13:01:44;;;;;;;8.75;2.70;;;;;;;;;;5133895;27;20038;-76
2022/07/08 13:04:10;;;;;;;5.70;1.42;;;;;;;;;;5117481;27;20503;-78
2022/07/08 13:06:36;;;;;;;7.22;1.30;;;;;;;;;;5114193;28;20027;-77
2022/07/08 13:09:02;;;;;;;3.75;1.30;;;;;;;;;;5114052;28;20396;-74
2022/07/08 13:11:28;;;;;;;3.75;1.10;;;;;;;;;;5115715;28;20032;-74
2022/07/08 13:13:54;;;;;;;7.75;1.50;;;;;;;;;;5114730;28;20122;-74
2022/07/08 13:16:21;;;;;;;3.53;1.20;;;;;;;;;;5130029;27;20122;-75
2022/07/08 13:18:47;;;;;;;5.15;1.30;;;;;;;;;;5134853;27;20145;-75
2022/07/08 13:21:13;;;;;;;6.35;1.83;;;;;;;;;;5135154;27;20054;-75
2022/07/08 13:23:39;;;;;;;8.93;1.55;;;;;;;;;;5135319;27;20087;-75
2022/07/08 13:26:05;;;;;;;6.28;1.77;;;;;;;;;;5136379;27;20117;-75
2022/07/08 13:28:33;;;;;;;10.07;1.65;;;;;;;;;;5134827;27;20031;-75
2022/07/08 13:30:59;;;;;;;4.75;1.25;;;;;;;;;;5134821;27;20126;-75
2022/07/08 13:33:26;;;;;;;6.55;1.67;;;;;;;;;;5117651;27;20568;-75
2022/07/08 13:35:52;;;;;;;6.88;1.85;;;;;;;;;;5135926;27;20063;-75
2022/07/08 13:38:19;;;;;;;5.05;1.63;;;;;;;;;;5133485;27;20085;-75
2022/07/08 13:40:45;;;;;;;6.85;1.27;;;;;;;;;;5117932;27;20509;-75
2022/07/08 13:43:11;;;;;;;6.00;1.55;;;;;;;;;;5115844;27;20064;-74
2022/07/08 13:45:37;;;;;;;6.05;1.35;;;;;;;;;;5117069;27;20027;-75
2022/07/08 13:48:03;;;;;;;6.97;1.33;;;;;;;;;;5117505;27;20659;-75
2022/07/08 13:50:29;;;;;;;6.30;1.40;;;;;;;;;;5117794;27;20056;-75
2022/07/08 13:52:54;;;;;;;6.30;1.50;;;;;;;;;;5134416;27;20574;-75
2022/07/08 13:55:20;;;;;;;3.78;1.25;;;;;;;;;;5135500;27;20031;-75
2022/07/08 13:57:46;;;;;;;8.32;1.40;;;;;;;;;;5117101;27;20408;-75
2022/07/08 14:00:13;;;;;;;4.10;1.30;;;;;;;;;;5134247;27;20109;-75
2022/07/08 14:02:39;;;;;;;3.20;1.13;;;;;;;;;;5133541;27;20035;-75
2022/07/08 14:05:06;;;;;;;6.13;1.60;;;;;;;;;;5117068;27;20088;-74
2022/07/08 14:07:31;;;;;;;6.53;1.67;;;;;;;;;;5135594;27;20507;-76
2022/07/08 14:09:57;;;;;;;5.65;1.27;;;;;;;;;;5114977;27;20062;-75
2022/07/08 14:12:22;;;;;;;4.25;1.60;;;;;;;;;;5132930;27;20045;-75
2022/07/08 14:14:48;;;;;;;5.63;1.38;;;;;;;;;;5134311;27;20035;-75
2022/07/08 14:17:14;;;;;;;5.55;1.40;;;;;;;;;;5134983;27;20449;-75
2022/07/08 14:19:40;;;;;;;5.03;1.40;;;;;;;;;;5134013;27;20043;-74
2022/07/08 14:22:06;;;;;;;4.63;1.20;;;;;;;;;;5134079;27;20115;-74
2022/07/08 14:24:32;;;;;;;3.95;1.38;;;;;;;;;;5128486;27;20109;-75
2022/07/08 14:26:58;;;;;;;6.97;1.50;;;;;;;;;;5107098;27;20062;-75
2022/07/08 14:29:24;;;;;;;5.03;1.60;;;;;;;;;;5121304;27;20032;-75
2022/07/08 14:31:49;;;;;;;5.35;1.20;;;;;;;;;;5096165;28;20484;-74
2022/07/08 14:34:16;;;;;;;5.78;1.50;;;;;;;;;;5114245;28;20035;-74
2022/07/08 14:36:41;;;;;;;7.32;1.52;;;;;;;;;;5096219;28;20039;-74
2022/07/08 14:39:07;;;;;;;3.65;1.25;;;;;;;;;;5128168;27;20063;-75
2022/07/08 14:41:33;;;;;;;7.10;1.67;;;;;;;;;;5116561;27;20035;-74